Time;durP1;ratioP1;P1;durP2;ratioP2;P2;SDS_P1;SDS_P2;PMS_P1;PMS_P2;Temp;Humidity;BMP_temperature;BMP_pressure;BME280_temperature;BME280_humidity;BME280_pressure;Samples;Min_cycle;Max_cycle;Signal;HPM_P1;HPM_P2
2024/01/10 00:01:35;;;;;;;19.38;10.77;;;;;;;;;;5081066;28;20039;-73
2024/01/10 00:04:01;;;;;;;18.38;10.45;;;;;;;;;;5080641;28;20044;-73
2024/01/10 00:06:27;;;;;;;18.23;9.45;;;;;;;;;;5080928;28;20056;-73
2024/01/10 00:08:53;;;;;;;18.50;9.88;;;;;;;;;;5096893;28;20044;-73
2024/01/10 00:11:19;;;;;;;19.50;11.48;;;;;;;;;;5080920;28;20055;-73
2024/01/10 00:13:45;;;;;;;19.35;10.02;;;;;;;;;;5081006;28;20040;-73
2024/01/10 00:16:15;;;;;;;20.60;10.20;;;;;;;;;;5084691;28;20052;-73
2024/01/10 00:18:41;;;;;;;17.60;9.98;;;;;;;;;;5085172;28;20040;-73
2024/01/10 00:21:07;;;;;;;22.05;11.10;;;;;;;;;;5084775;28;20075;-73
2024/01/10 00:23:33;;;;;;;17.80;9.77;;;;;;;;;;5084599;28;20055;-73
2024/01/10 00:25:59;;;;;;;16.13;9.07;;;;;;;;;;5085460;28;20566;-73
2024/01/10 00:28:25;;;;;;;19.77;9.70;;;;;;;;;;5084881;28;20047;-73
2024/01/10 00:30:51;;;;;;;14.35;8.88;;;;;;;;;;5084831;28;20053;-73
2024/01/10 00:33:18;;;;;;;17.17;9.77;;;;;;;;;;5084935;28;20089;-73
2024/01/10 00:35:44;;;;;;;18.95;9.77;;;;;;;;;;5101587;28;20075;-73
2024/01/10 00:38:10;;;;;;;18.15;8.82;;;;;;;;;;5067662;28;20044;-73
2024/01/10 00:40:36;;;;;;;17.85;9.90;;;;;;;;;;5084141;28;20417;-73
2024/01/10 00:43:03;;;;;;;18.17;9.75;;;;;;;;;;5084150;28;20055;-73
2024/01/10 00:45:29;;;;;;;15.95;8.57;;;;;;;;;;5084347;28;20054;-73
2024/01/10 00:47:56;;;;;;;14.95;9.02;;;;;;;;;;5084108;28;20147;-73
2024/01/10 00:50:22;;;;;;;14.43;8.43;;;;;;;;;;5084241;28;20118;-73
2024/01/10 00:52:48;;;;;;;14.95;9.10;;;;;;;;;;5085436;28;20124;-73
2024/01/10 00:55:14;;;;;;;17.70;9.00;;;;;;;;;;5084222;28;20454;-73
2024/01/10 00:57:40;;;;;;;14.25;7.97;;;;;;;;;;5066825;28;20044;-73
2024/01/10 01:00:10;;;;;;;15.07;9.35;;;;;;;;;;5085260;28;20055;-73
2024/01/10 01:02:39;;;;;;;14.77;8.27;;;;;;;;;;5083659;28;20485;-73
2024/01/10 01:05:05;;;;;;;15.30;8.52;;;;;;;;;;5084218;28;20051;-73
2024/01/10 01:07:31;;;;;;;13.65;7.68;;;;;;;;;;5083815;28;20123;-73
2024/01/10 01:09:57;;;;;;;15.43;8.77;;;;;;;;;;5067103;28;20062;-73
2024/01/10 01:12:23;;;;;;;12.65;8.00;;;;;;;;;;5066721;28;20040;-73
2024/01/10 01:14:49;;;;;;;16.52;8.70;;;;;;;;;;5083211;28;20062;-73
2024/01/10 01:17:15;;;;;;;15.93;7.25;;;;;;;;;;5083315;28;20048;-73
2024/01/10 01:19:41;;;;;;;15.77;8.27;;;;;;;;;;5083459;28;20040;-73
2024/01/10 01:22:07;;;;;;;16.08;8.77;;;;;;;;;;5066643;28;20047;-73
2024/01/10 01:24:34;;;;;;;16.05;9.05;;;;;;;;;;5082917;28;20044;-73
2024/01/10 01:27:00;;;;;;;15.77;8.55;;;;;;;;;;5083416;28;20464;-73
2024/01/10 01:29:26;;;;;;;15.57;8.20;;;;;;;;;;5083538;28;20047;-73
2024/01/10 01:31:53;;;;;;;12.55;7.43;;;;;;;;;;5084971;28;20409;-73
2024/01/10 01:34:19;;;;;;;14.88;7.90;;;;;;;;;;5066829;28;20036;-73
2024/01/10 01:36:45;;;;;;;15.65;8.43;;;;;;;;;;5083096;28;20050;-73
2024/01/10 01:39:13;;;;;;;17.10;8.80;;;;;;;;;;5083291;28;20119;-73
2024/01/10 01:41:39;;;;;;;17.33;9.43;;;;;;;;;;5083138;28;20044;-73
2024/01/10 01:44:05;;;;;;;16.00;8.45;;;;;;;;;;5084620;28;20036;-73
2024/01/10 01:46:32;;;;;;;16.00;9.23;;;;;;;;;;5083643;28;20070;-73
2024/01/10 01:48:58;;;;;;;14.35;8.43;;;;;;;;;;5082782;28;20059;-73
2024/01/10 01:51:25;;;;;;;16.65;8.25;;;;;;;;;;5082970;28;20099;-73
2024/01/10 01:53:51;;;;;;;15.52;8.50;;;;;;;;;;5083961;28;20524;-73
2024/01/10 01:56:17;;;;;;;14.35;7.70;;;;;;;;;;5082740;28;20064;-73
2024/01/10 01:58:44;;;;;;;14.82;8.25;;;;;;;;;;5082574;28;20039;-73
2024/01/10 02:01:11;;;;;;;13.23;7.22;;;;;;;;;;5082649;28;20040;-73
2024/01/10 02:03:37;;;;;;;13.63;6.55;;;;;;;;;;5084453;28;20553;-73
2024/01/10 02:06:03;;;;;;;14.48;7.88;;;;;;;;;;5082496;28;20052;-73
2024/01/10 02:08:39;;;;;;;13.80;8.35;;;;;;;;;;5082877;28;20043;-73
2024/01/10 02:11:04;;;;;;;;;;;;;;;;;;5083881;28;20040;-73
2024/01/10 02:13:32;;;;;;;15.65;7.88;;;;;;;;;;5081436;28;19920;-73
2024/01/10 02:15:58;;;;;;;17.35;9.13;;;;;;;;;;5082036;28;20060;-73
2024/01/10 02:18:24;;;;;;;15.00;8.30;;;;;;;;;;5080166;28;20093;-73
2024/01/10 02:20:52;;;;;;;14.13;8.40;;;;;;;;;;5082405;28;20048;-73
2024/01/10 02:23:18;;;;;;;18.67;8.88;;;;;;;;;;5082419;28;20047;-73
2024/01/10 02:25:44;;;;;;;17.73;10.00;;;;;;;;;;5082129;28;20137;-73
2024/01/10 02:28:10;;;;;;;15.98;9.30;;;;;;;;;;5082768;28;20569;-73
2024/01/10 02:30:37;;;;;;;17.75;9.48;;;;;;;;;;5082329;28;20059;-73
2024/01/10 02:33:03;;;;;;;19.75;10.18;;;;;;;;;;5084135;28;20040;-73
2024/01/10 02:35:32;;;;;;;18.13;9.93;;;;;;;;;;5082329;28;20496;-73
2024/01/10 02:37:58;;;;;;;19.30;10.65;;;;;;;;;;5082887;28;20055;-73
2024/01/10 02:40:24;;;;;;;21.33;11.50;;;;;;;;;;5082373;28;20048;-73
2024/01/10 02:42:51;;;;;;;20.33;10.68;;;;;;;;;;5082298;28;20073;-73
2024/01/10 02:45:17;;;;;;;20.50;10.90;;;;;;;;;;5083330;28;20132;-73
2024/01/10 02:47:43;;;;;;;18.67;10.88;;;;;;;;;;5082426;28;20055;-73
2024/01/10 02:50:09;;;;;;;20.77;10.77;;;;;;;;;;5065420;28;20788;-73
2024/01/10 02:52:35;;;;;;;18.35;10.45;;;;;;;;;;5082198;28;20449;-73
2024/01/10 02:55:01;;;;;;;19.08;10.80;;;;;;;;;;5082214;28;20048;-73
2024/01/10 02:57:27;;;;;;;21.42;11.55;;;;;;;;;;5082363;28;20055;-73
2024/01/10 02:59:53;;;;;;;19.70;10.55;;;;;;;;;;5081610;28;21095;-73
2024/01/10 03:02:19;;;;;;;21.77;11.65;;;;;;;;;;5081876;28;20039;-73
2024/01/10 03:04:45;;;;;;;21.38;10.95;;;;;;;;;;5081870;28;20044;-73
2024/01/10 03:07:11;;;;;;;22.75;11.55;;;;;;;;;;5081966;28;20047;-73
2024/01/10 03:09:37;;;;;;;20.48;11.32;;;;;;;;;;5081896;28;20051;-73
2024/01/10 03:12:04;;;;;;;23.70;11.38;;;;;;;;;;5081677;28;20043;-73
2024/01/10 03:14:30;;;;;;;22.00;11.40;;;;;;;;;;5081251;28;20167;-73
2024/01/10 03:16:56;;;;;;;19.75;11.30;;;;;;;;;;5081710;28;20063;-73
2024/01/10 03:19:22;;;;;;;20.27;10.85;;;;;;;;;;5081038;28;20789;-73
2024/01/10 03:21:48;;;;;;;20.60;10.82;;;;;;;;;;5081234;28;20047;-73
2024/01/10 03:24:14;;;;;;;20.77;11.40;;;;;;;;;;5081149;28;20040;-73
2024/01/10 03:26:40;;;;;;;22.67;11.07;;;;;;;;;;5064515;28;20040;-72
2024/01/10 03:29:06;;;;;;;21.50;11.18;;;;;;;;;;5082106;28;20051;-73
2024/01/10 03:31:32;;;;;;;21.60;12.10;;;;;;;;;;5082932;28;20043;-73
2024/01/10 03:33:58;;;;;;;19.08;11.43;;;;;;;;;;5082264;28;20044;-73
2024/01/10 03:36:25;;;;;;;24.27;12.32;;;;;;;;;;5081902;28;20158;-73
2024/01/10 03:38:51;;;;;;;20.45;11.27;;;;;;;;;;5081762;28;20143;-73
2024/01/10 03:41:18;;;;;;;18.88;11.02;;;;;;;;;;5081669;28;20520;-73
2024/01/10 03:43:44;;;;;;;25.60;11.90;;;;;;;;;;5081804;28;20043;-74
2024/01/10 03:46:11;;;;;;;19.27;11.85;;;;;;;;;;5082397;28;20055;-73
2024/01/10 03:48:38;;;;;;;20.83;11.27;;;;;;;;;;5082967;28;20047;-73
2024/01/10 03:51:04;;;;;;;23.88;11.32;;;;;;;;;;5086527;28;20097;-73
2024/01/10 03:53:30;;;;;;;23.50;12.05;;;;;;;;;;5085543;28;20425;-73
2024/01/10 03:55:56;;;;;;;22.38;11.32;;;;;;;;;;5068364;28;20112;-73
2024/01/10 03:58:22;;;;;;;20.50;10.65;;;;;;;;;;5085157;28;20043;-73
2024/01/10 04:00:48;;;;;;;23.48;11.90;;;;;;;;;;5085219;28;20123;-73
2024/01/10 04:03:14;;;;;;;21.45;12.63;;;;;;;;;;5085018;28;20042;-73
2024/01/10 04:05:41;;;;;;;22.33;11.90;;;;;;;;;;5068009;28;20443;-73
2024/01/10 04:08:07;;;;;;;23.38;12.63;;;;;;;;;;5085294;28;20071;-73
2024/01/10 04:10:33;;;;;;;21.92;11.23;;;;;;;;;;5067585;28;20101;-73
2024/01/10 04:12:59;;;;;;;20.65;10.82;;;;;;;;;;5086113;28;20447;-73
2024/01/10 04:15:25;;;;;;;21.73;12.18;;;;;;;;;;5084443;28;20123;-73
2024/01/10 04:17:51;;;;;;;22.80;12.48;;;;;;;;;;5085010;28;20071;-73
2024/01/10 04:20:17;;;;;;;24.02;11.85;;;;;;;;;;5084408;28;20052;-73
2024/01/10 04:22:43;;;;;;;22.48;12.02;;;;;;;;;;5085028;28;20040;-73
2024/01/10 04:25:09;;;;;;;22.00;12.27;;;;;;;;;;5084558;28;20072;-73
2024/01/10 04:27:35;;;;;;;18.95;11.07;;;;;;;;;;5084637;28;20211;-73
2024/01/10 04:30:01;;;;;;;23.20;12.45;;;;;;;;;;5084447;28;20079;-73
2024/01/10 04:32:28;;;;;;;21.52;11.50;;;;;;;;;;5083912;28;20048;-73
2024/01/10 04:34:54;;;;;;;23.38;11.73;;;;;;;;;;5084593;28;20473;-73
2024/01/10 04:37:20;;;;;;;23.77;12.00;;;;;;;;;;5083493;28;20050;-73
2024/01/10 04:39:46;;;;;;;21.73;11.60;;;;;;;;;;5083945;28;20048;-73
2024/01/10 04:42:13;;;;;;;22.17;11.52;;;;;;;;;;5083998;28;20103;-72
2024/01/10 04:44:39;;;;;;;21.10;11.52;;;;;;;;;;5083907;28;20044;-73
2024/01/10 04:47:05;;;;;;;21.67;11.43;;;;;;;;;;5084139;28;20052;-73
2024/01/10 04:49:31;;;;;;;24.23;12.60;;;;;;;;;;5083864;28;20050;-73
2024/01/10 04:51:57;;;;;;;21.45;11.20;;;;;;;;;;5084456;28;20052;-73
2024/01/10 04:54:23;;;;;;;20.27;10.65;;;;;;;;;;5067212;28;20040;-73
2024/01/10 04:56:49;;;;;;;21.27;12.13;;;;;;;;;;5084029;28;20047;-73
2024/01/10 04:59:15;;;;;;;21.55;11.48;;;;;;;;;;5083655;28;20047;-73
2024/01/10 05:01:41;;;;;;;21.50;11.73;;;;;;;;;;5083268;28;20656;-73
2024/01/10 05:04:07;;;;;;;20.58;10.70;;;;;;;;;;5083798;28;20047;-73
2024/01/10 05:06:33;;;;;;;20.60;10.75;;;;;;;;;;5083768;28;20040;-73
2024/01/10 05:08:59;;;;;;;19.73;10.80;;;;;;;;;;5083680;28;20048;-73
2024/01/10 05:11:25;;;;;;;20.00;11.73;;;;;;;;;;5083611;28;20100;-73
2024/01/10 05:13:52;;;;;;;19.48;11.60;;;;;;;;;;5083527;28;20142;-74
2024/01/10 05:16:18;;;;;;;23.98;10.85;;;;;;;;;;5083684;28;20055;-73
2024/01/10 05:18:44;;;;;;;21.33;11.18;;;;;;;;;;5085521;28;20040;-73
2024/01/10 05:21:10;;;;;;;21.00;10.20;;;;;;;;;;5083573;28;20044;-73
2024/01/10 05:23:38;;;;;;;22.55;12.07;;;;;;;;;;5083603;28;20453;-73
2024/01/10 05:26:04;;;;;;;21.95;11.27;;;;;;;;;;5083666;28;20113;-73
2024/01/10 05:28:30;;;;;;;22.58;12.07;;;;;;;;;;5084612;28;20051;-73
2024/01/10 05:30:57;;;;;;;23.00;11.73;;;;;;;;;;5083109;28;20040;-73
2024/01/10 05:33:23;;;;;;;21.73;11.50;;;;;;;;;;5084424;28;20127;-73
2024/01/10 05:35:49;;;;;;;23.05;11.73;;;;;;;;;;5083079;28;22623;-73
2024/01/10 05:38:15;;;;;;;21.13;12.02;;;;;;;;;;5082798;28;20715;-73
2024/01/10 05:40:41;;;;;;;20.02;10.88;;;;;;;;;;5083143;28;20044;-73
2024/01/10 05:43:07;;;;;;;21.83;11.82;;;;;;;;;;5084554;28;20043;-73
2024/01/10 05:45:33;;;;;;;21.88;12.52;;;;;;;;;;5083065;28;20074;-73
2024/01/10 05:47:59;;;;;;;21.02;11.23;;;;;;;;;;5082951;28;20130;-73
2024/01/10 05:50:25;;;;;;;25.63;12.63;;;;;;;;;;5084746;28;20086;-73
2024/01/10 05:52:52;;;;;;;19.77;11.52;;;;;;;;;;5082959;28;20497;-73
2024/01/10 05:55:19;;;;;;;21.83;11.48;;;;;;;;;;5082997;28;20040;-73
2024/01/10 05:57:45;;;;;;;22.33;13.05;;;;;;;;;;5082594;28;20051;-73
2024/01/10 06:00:12;;;;;;;21.98;10.50;;;;;;;;;;5083519;28;20165;-73
2024/01/10 06:02:38;;;;;;;19.38;11.38;;;;;;;;;;5082729;28;20048;-73
2024/01/10 06:05:11;;;;;;;18.58;9.93;;;;;;;;;;5083314;28;20497;-73
2024/01/10 06:07:37;;;;;;;19.42;10.48;;;;;;;;;;5082831;28;20036;-73
2024/01/10 06:10:04;;;;;;;21.40;10.80;;;;;;;;;;5083330;28;20079;-73
2024/01/10 06:12:30;;;;;;;21.15;11.80;;;;;;;;;;5094057;28;20056;-73
2024/01/10 06:14:57;;;;;;;19.23;11.05;;;;;;;;;;5083018;28;20059;-73
2024/01/10 06:17:23;;;;;;;25.52;11.52;;;;;;;;;;5083421;28;20040;-73
2024/01/10 06:19:49;;;;;;;19.00;10.85;;;;;;;;;;5083351;28;20040;-73
2024/01/10 06:22:16;;;;;;;18.25;10.57;;;;;;;;;;5082601;28;20538;-73
2024/01/10 06:24:42;;;;;;;22.10;10.95;;;;;;;;;;5083217;28;20685;-73
2024/01/10 06:27:09;;;;;;;23.00;11.48;;;;;;;;;;5083239;28;20841;-73
2024/01/10 06:29:36;;;;;;;21.13;11.60;;;;;;;;;;5092142;28;20071;-73
2024/01/10 06:32:02;;;;;;;21.08;11.13;;;;;;;;;;5082166;28;20043;-73
2024/01/10 06:34:28;;;;;;;22.98;11.93;;;;;;;;;;5082449;28;20047;-73
2024/01/10 06:36:54;;;;;;;24.17;12.15;;;;;;;;;;5082363;28;20047;-73
2024/01/10 06:39:20;;;;;;;19.65;12.18;;;;;;;;;;5082066;28;20682;-73
2024/01/10 06:41:49;;;;;;;19.70;10.95;;;;;;;;;;5081595;28;20052;-73
2024/01/10 06:44:19;;;;;;;20.45;10.88;;;;;;;;;;5081592;28;20579;-73
2024/01/10 06:46:45;;;;;;;19.35;9.90;;;;;;;;;;5083641;28;20401;-73
2024/01/10 06:49:11;;;;;;;21.05;10.70;;;;;;;;;;5081398;28;20090;-73
2024/01/10 06:51:37;;;;;;;21.83;12.30;;;;;;;;;;5081713;28;20051;-73
2024/01/10 06:54:04;;;;;;;24.70;12.15;;;;;;;;;;5081004;28;20048;-73
2024/01/10 06:56:33;;;;;;;22.85;10.90;;;;;;;;;;5082637;28;20058;-73
2024/01/10 06:59:00;;;;;;;26.20;12.23;;;;;;;;;;5096756;28;20127;-73
2024/01/10 07:01:26;;;;;;;25.40;11.85;;;;;;;;;;5080901;28;20102;-73
2024/01/10 07:03:55;;;;;;;22.13;12.43;;;;;;;;;;5073105;28;20054;-73
2024/01/10 07:06:22;;;;;;;22.45;11.65;;;;;;;;;;5078829;28;20044;-73
2024/01/10 07:08:49;;;;;;;24.45;12.52;;;;;;;;;;5082553;28;20156;-73
2024/01/10 07:11:15;;;;;;;21.75;12.40;;;;;;;;;;5080952;28;20062;-73
2024/01/10 07:13:41;;;;;;;21.65;12.00;;;;;;;;;;5080921;28;20412;-73
2024/01/10 07:16:08;;;;;;;24.55;12.85;;;;;;;;;;5080324;28;20056;-73
2024/01/10 07:18:34;;;;;;;23.00;12.63;;;;;;;;;;5080845;28;20044;-73
2024/01/10 07:21:00;;;;;;;19.88;11.05;;;;;;;;;;5080862;28;20435;-73
2024/01/10 07:23:27;;;;;;;22.73;12.02;;;;;;;;;;5080730;28;20108;-73
2024/01/10 07:25:53;;;;;;;27.52;11.90;;;;;;;;;;5081255;28;20040;-73
2024/01/10 07:28:19;;;;;;;20.70;11.35;;;;;;;;;;5079569;28;20498;-74
2024/01/10 07:30:45;;;;;;;21.52;11.45;;;;;;;;;;5080387;28;20040;-74
2024/01/10 07:33:12;;;;;;;20.67;11.20;;;;;;;;;;5081457;28;20397;-75
2024/01/10 07:35:38;;;;;;;21.00;11.50;;;;;;;;;;5080582;28;20040;-71
2024/01/10 07:38:07;;;;;;;23.65;11.65;;;;;;;;;;5081307;28;20850;-71
2024/01/10 07:40:33;;;;;;;21.50;12.43;;;;;;;;;;5081374;28;20113;-71
2024/01/10 07:42:59;;;;;;;22.17;11.35;;;;;;;;;;5078381;28;20082;-71
2024/01/10 07:45:26;;;;;;;20.83;11.18;;;;;;;;;;5063781;28;20107;-71
2024/01/10 07:47:52;;;;;;;18.55;11.45;;;;;;;;;;5080019;28;20064;-72
2024/01/10 07:50:19;;;;;;;20.17;11.60;;;;;;;;;;5079753;28;20050;-71
2024/01/10 07:52:49;;;;;;;22.30;12.95;;;;;;;;;;5080463;28;20052;-71
2024/01/10 07:55:15;;;;;;;30.42;16.52;;;;;;;;;;5080662;28;20055;-70
2024/01/10 07:57:44;;;;;;;31.52;17.58;;;;;;;;;;5080337;28;20058;-70
2024/01/10 08:00:10;;;;;;;23.95;14.13;;;;;;;;;;5079068;28;20044;-70
2024/01/10 08:02:37;;;;;;;22.23;12.35;;;;;;;;;;5080908;28;20044;-70
2024/01/10 08:05:08;;;;;;;21.45;11.38;;;;;;;;;;5081516;28;20445;-72
2024/01/10 08:07:36;;;;;;;18.67;10.38;;;;;;;;;;5063155;28;20049;-72
2024/01/10 08:10:04;;;;;;;23.95;11.02;;;;;;;;;;5062418;28;20832;-72
2024/01/10 08:12:30;;;;;;;19.23;10.68;;;;;;;;;;5079711;28;20044;-70
2024/01/10 08:14:56;;;;;;;20.95;12.23;;;;;;;;;;5080556;28;20092;-70
2024/01/10 08:17:23;;;;;;;19.50;12.23;;;;;;;;;;5062771;28;20071;-71
2024/01/10 08:19:49;;;;;;;18.48;10.95;;;;;;;;;;5081666;28;20050;-71
2024/01/10 08:22:15;;;;;;;20.50;11.02;;;;;;;;;;5080089;28;20397;-72
2024/01/10 08:24:41;;;;;;;21.33;11.40;;;;;;;;;;5081236;28;20497;-72
2024/01/10 08:27:07;;;;;;;22.23;10.90;;;;;;;;;;5079679;28;20113;-73
2024/01/10 08:29:34;;;;;;;22.00;10.20;;;;;;;;;;5079630;28;20383;-70
2024/01/10 08:32:00;;;;;;;17.80;10.38;;;;;;;;;;5080267;28;20043;-71
2024/01/10 08:34:26;;;;;;;18.98;10.77;;;;;;;;;;5082098;28;20036;-70
2024/01/10 08:36:53;;;;;;;21.65;11.10;;;;;;;;;;5085149;28;20088;-70
2024/01/10 08:39:19;;;;;;;20.98;10.52;;;;;;;;;;5081187;28;20036;-72
2024/01/10 08:41:45;;;;;;;16.17;10.20;;;;;;;;;;5087357;28;20043;-72
2024/01/10 08:44:11;;;;;;;21.58;11.10;;;;;;;;;;5084500;28;20101;-73
2024/01/10 08:46:37;;;;;;;22.42;10.95;;;;;;;;;;5087134;28;20420;-71
2024/01/10 08:49:03;;;;;;;18.77;10.40;;;;;;;;;;5084135;28;20416;-71
2024/01/10 08:51:30;;;;;;;18.05;10.15;;;;;;;;;;5084222;28;20047;-71
2024/01/10 08:53:56;;;;;;;17.92;9.98;;;;;;;;;;5085227;28;20142;-71
2024/01/10 08:56:23;;;;;;;20.10;10.32;;;;;;;;;;5083759;28;20074;-70
2024/01/10 08:58:49;;;;;;;20.25;10.80;;;;;;;;;;5084348;28;20070;-70
2024/01/10 09:01:15;;;;;;;19.20;11.02;;;;;;;;;;5086504;28;20482;-70
2024/01/10 09:03:41;;;;;;;17.13;10.20;;;;;;;;;;5086711;28;20809;-70
2024/01/10 09:06:07;;;;;;;19.55;10.90;;;;;;;;;;5084483;28;20497;-70
2024/01/10 09:08:34;;;;;;;18.73;10.32;;;;;;;;;;5086107;28;20090;-70
2024/01/10 09:11:00;;;;;;;19.48;10.45;;;;;;;;;;5086934;28;20048;-70
2024/01/10 09:13:27;;;;;;;17.98;9.68;;;;;;;;;;5084819;28;20044;-70
2024/01/10 09:15:53;;;;;;;17.38;10.40;;;;;;;;;;5087935;28;20154;-70
2024/01/10 09:18:19;;;;;;;17.02;10.35;;;;;;;;;;5082085;28;20055;-71
2024/01/10 09:20:45;;;;;;;16.70;9.80;;;;;;;;;;5084517;28;20051;-70
2024/01/10 09:23:12;;;;;;;21.02;11.23;;;;;;;;;;5082737;28;20051;-70
2024/01/10 09:25:38;;;;;;;18.77;10.35;;;;;;;;;;5082077;28;20040;-70
2024/01/10 09:28:07;;;;;;;18.40;10.40;;;;;;;;;;5083808;28;20097;-70
2024/01/10 09:30:33;;;;;;;21.52;11.15;;;;;;;;;;5082340;28;20513;-70
2024/01/10 09:33:00;;;;;;;20.70;10.18;;;;;;;;;;5082415;28;20105;-70
2024/01/10 09:35:26;;;;;;;20.55;11.40;;;;;;;;;;5081873;28;20058;-70
2024/01/10 09:37:53;;;;;;;18.55;10.32;;;;;;;;;;5081942;28;20040;-70
2024/01/10 09:40:21;;;;;;;18.85;10.40;;;;;;;;;;5094188;28;20048;-70
2024/01/10 09:42:50;;;;;;;18.67;9.93;;;;;;;;;;5081391;28;20119;-71
2024/01/10 09:45:18;;;;;;;19.20;10.48;;;;;;;;;;5082177;28;20048;-71
2024/01/10 09:47:46;;;;;;;19.42;9.98;;;;;;;;;;5082888;28;20585;-71
2024/01/10 09:50:12;;;;;;;20.77;9.63;;;;;;;;;;5077940;28;20498;-71
2024/01/10 09:52:51;;;;;;;17.70;9.82;;;;;;;;;;5080978;28;20052;-71
2024/01/10 09:55:17;;;;;;;18.40;10.40;;;;;;;;;;5080444;28;20059;-71
2024/01/10 09:57:43;;;;;;;20.52;10.85;;;;;;;;;;5082637;28;20142;-71
2024/01/10 10:00:11;;;;;;;13.95;6.72;;;;;;;;;;5081382;28;20036;-70
2024/01/10 10:02:42;;;;;;;17.35;10.10;;;;;;;;;;5081629;28;20087;-71
2024/01/10 10:05:17;;;;;;;18.98;10.20;;;;;;;;;;5082674;28;20147;-70
2024/01/10 10:07:44;;;;;;;17.35;10.40;;;;;;;;;;5081575;28;20112;-71
2024/01/10 10:10:12;;;;;;;18.13;10.32;;;;;;;;;;5083747;28;20047;-70
2024/01/10 10:12:48;;;;;;;19.85;9.73;;;;;;;;;;5083931;28;20082;-70
2024/01/10 10:15:18;;;;;;;12.48;6.35;;;;;;;;;;5079470;28;20054;-71
2024/01/10 10:17:48;;;;;;;17.05;9.50;;;;;;;;;;5083479;28;20451;-70
2024/01/10 10:20:27;;;;;;;17.58;9.32;;;;;;;;;;5081350;28;20143;-72
2024/01/10 10:22:56;;;;;;;17.52;9.52;;;;;;;;;;5081568;28;20059;-71
2024/01/10 10:25:23;;;;;;;19.15;9.32;;;;;;;;;;5081297;28;20048;-70
2024/01/10 10:27:52;;;;;;;19.40;10.05;;;;;;;;;;5083145;28;20199;-72
2024/01/10 10:30:18;;;;;;;20.35;10.80;;;;;;;;;;5081868;28;20691;-71
2024/01/10 10:32:44;;;;;;;19.58;10.20;;;;;;;;;;5081262;28;21373;-71
2024/01/10 10:35:11;;;;;;;16.58;8.55;;;;;;;;;;5082004;28;20051;-71
2024/01/10 10:37:37;;;;;;;18.13;9.05;;;;;;;;;;5081203;28;20102;-71
2024/01/10 10:40:03;;;;;;;17.55;8.77;;;;;;;;;;5064864;28;20040;-70
2024/01/10 10:42:29;;;;;;;22.02;10.15;;;;;;;;;;5083097;28;20043;-70
2024/01/10 10:44:58;;;;;;;19.67;8.77;;;;;;;;;;5081257;28;20132;-71
2024/01/10 10:47:26;;;;;;;17.80;9.30;;;;;;;;;;5081778;28;20390;-71
2024/01/10 10:49:54;;;;;;;17.13;9.00;;;;;;;;;;5082718;28;20039;-70
2024/01/10 10:52:20;;;;;;;21.88;8.75;;;;;;;;;;5081373;28;20150;-71
2024/01/10 10:54:47;;;;;;;20.17;9.85;;;;;;;;;;5081363;28;20044;-70
2024/01/10 10:57:14;;;;;;;16.55;8.88;;;;;;;;;;5080686;28;20051;-70
2024/01/10 10:59:41;;;;;;;16.10;7.75;;;;;;;;;;5077278;28;20443;-71
2024/01/10 11:02:10;;;;;;;16.83;8.30;;;;;;;;;;5080384;28;20172;-71
2024/01/10 11:04:37;;;;;;;14.85;7.93;;;;;;;;;;5080881;28;20051;-71
2024/01/10 11:07:03;;;;;;;15.88;8.88;;;;;;;;;;5084017;28;20228;-71
2024/01/10 11:09:29;;;;;;;16.77;8.52;;;;;;;;;;5080019;28;20047;-70
2024/01/10 11:12:12;;;;;;;15.82;7.85;;;;;;;;;;5080418;28;20035;-71
2024/01/10 11:15:02;;;;;;;19.27;8.90;;;;;;;;;;5078705;28;20070;-71
2024/01/10 11:17:45;;;;;;;15.00;7.72;;;;;;;;;;5079851;28;20052;-70
2024/01/10 11:20:28;;;;;;;18.52;7.93;;;;;;;;;;5080446;28;20155;-70
2024/01/10 11:23:14;;;;;;;18.38;9.00;;;;;;;;;;5079948;28;20505;-71
2024/01/10 11:25:41;;;;;;;18.00;9.32;;;;;;;;;;5080011;28;20050;-70
2024/01/10 11:28:07;;;;;;;16.73;8.70;;;;;;;;;;5080180;28;20048;-71
2024/01/10 11:30:39;;;;;;;17.48;8.48;;;0.20;99.90;;;;;;5080624;28;20047;-71
2024/01/10 11:33:19;;;;;;;18.42;8.98;;;;;;;;;;5080258;28;20052;-72
2024/01/10 11:36:04;;;;;;;15.30;8.25;;;;;;;;;;5079846;28;20607;-72
2024/01/10 11:38:31;;;;;;;16.17;7.88;;;;;;;;;;5080577;28;20619;-72
2024/01/10 11:40:57;;;;;;;16.90;8.75;;;;;;;;;;5080171;28;20069;-72
2024/01/10 11:43:23;;;;;;;16.75;7.50;;;;;;;;;;5080535;28;20036;-72
2024/01/10 11:45:53;;;;;;;16.40;8.00;;;;;;;;;;5082523;28;20036;-72
2024/01/10 11:48:28;;;;;;;18.75;7.95;;;;;;;;;;5080511;28;20051;-72
2024/01/10 11:50:55;;;;;;;16.08;7.60;;;;;;;;;;5080085;28;20040;-72
2024/01/10 11:53:40;;;;;;;14.68;7.40;;;;;;;;;;5085022;28;20499;-72
2024/01/10 11:56:16;;;;;;;15.80;8.35;;;;;;;;;;5082166;28;20055;-72
2024/01/10 11:59:01;;;;;;;17.92;8.68;;;;;;;;;;5081963;28;20050;-70
2024/01/10 12:01:27;;;;;;;17.92;8.43;;;;;;;;;;5094472;28;20063;-71
2024/01/10 12:03:54;;;;;;;15.40;8.10;;;;;;;;;;5083496;28;20035;-72
2024/01/10 12:06:21;;;;;;;15.45;7.93;;;;;;;;;;5082694;28;20096;-71
2024/01/10 12:08:47;;;;;;;15.90;7.30;;;;;;;;;;5080654;28;20047;-71
2024/01/10 12:11:13;;;;;;;17.25;8.07;;;;;;;;;;5088534;28;20044;-71
2024/01/10 12:13:39;;;;;;;17.35;8.27;;;;;;;;;;5089511;28;20039;-70
2024/01/10 12:16:06;;;;;;;17.92;8.95;;;;;;;;;;5087158;28;20154;-71
2024/01/10 12:18:32;;;;;;;17.63;7.95;;;;;;;;;;5082134;28;20515;-71
2024/01/10 12:20:58;;;;;;;17.05;8.43;;;;;;;;;;5084039;28;20048;-71
2024/01/10 12:23:24;;;;;;;17.60;7.22;;;;;;;;;;5085230;28;20044;-71
2024/01/10 12:25:50;;;;;;;15.73;7.30;;;;;;;;;;5083814;28;20098;-71
2024/01/10 12:28:17;;;;;;;15.18;7.57;;;;;;;;;;5083728;28;20093;-71
2024/01/10 12:30:44;;;;;;;14.98;7.82;;;;;;;;;;5084933;28;20043;-70
2024/01/10 12:33:10;;;;;;;15.32;7.00;;;;;;;;;;5083459;28;20325;-71
2024/01/10 12:35:37;;;;;;;16.30;7.68;;;;;;;;;;5085712;28;20501;-71
2024/01/10 12:38:03;;;;;;;14.02;6.47;;;;;;;;;;5083847;28;20048;-71
2024/01/10 12:40:29;;;;;;;15.43;7.93;;;;;;;;;;5083279;28;20044;-70
2024/01/10 12:43:02;;;;;;;16.38;7.78;;;;;;;;;;5082923;28;21341;-71
2024/01/10 12:45:28;;;;;;;16.55;8.00;;;;;;;;;;5085678;28;20404;-71
2024/01/10 12:47:54;;;;;;;15.52;7.53;;;;;;;;;;5083206;28;20121;-71
2024/01/10 12:50:20;;;;;;;16.55;7.40;;;;;;;;;;5086071;28;20846;-71
2024/01/10 12:52:48;;;;;;;15.85;7.47;;;;;;;;;;5083271;28;20043;-71
2024/01/10 12:55:14;;;;;;;18.20;7.78;;;;;;;;;;5088627;28;20413;-72
2024/01/10 12:57:41;;;;;;;16.92;7.15;;;;;;;;;;5082324;28;20097;-71
2024/01/10 13:00:08;;;;;;;16.30;8.18;;;;;;;;;;5087156;28;20074;-71
2024/01/10 13:02:36;;;;;;;13.30;6.50;;;;;;;;;;5081328;28;20111;-71
2024/01/10 13:05:03;;;;;;;14.40;7.90;;;;;;;;;;5086644;28;20753;-71
2024/01/10 13:07:31;;;;;;;14.18;6.82;;;;;;;;;;5084595;28;20051;-70
2024/01/10 13:09:57;;;;;;;15.43;7.65;;;;;;;;;;5083732;28;20056;-71
2024/01/10 13:12:23;;;;;;;17.20;7.72;;;;;;;;;;5084309;28;20131;-71
2024/01/10 13:14:49;;;;;;;15.75;6.95;;;;;;;;;;5083585;28;20133;-70
2024/01/10 13:17:16;;;;;;;13.80;7.63;;;;;;;;;;5081205;28;20067;-72
2024/01/10 13:19:48;;;;;;;19.77;8.23;;;;;;;;;;5085009;28;20036;-71
2024/01/10 13:22:15;;;;;;;13.63;7.35;;;;;;;;;;5082085;28;20450;-71
2024/01/10 13:24:42;;;;;;;16.23;7.65;;;;;;;;;;5084615;28;20527;-70
2024/01/10 13:27:10;;;;;;;17.20;7.80;;;;;;;;;;5082489;28;20102;-71
2024/01/10 13:29:37;;;;;;;14.63;7.15;;;;;;;;;;5082678;28;20052;-70
2024/01/10 13:32:06;;;;;;;12.95;6.65;;;;;;;;;;5079016;28;20527;-71
2024/01/10 13:34:32;;;;;;;14.38;7.10;;;;;;;;;;5083900;28;20056;-71
2024/01/10 13:36:58;;;;;;;14.68;7.15;;;;;;;;;;5083262;28;20056;-72
2024/01/10 13:39:24;;;;;;;17.70;7.78;;;;;;;;;;5083422;28;20170;-71
2024/01/10 13:41:50;;;;;;;14.05;8.18;;;;;;;;;;5081298;28;20059;-71
2024/01/10 13:44:17;;;;;;;15.68;7.57;;;;;;;;;;5081969;28;20147;-71
2024/01/10 13:46:43;;;;;;;14.25;7.35;;;;;;;;;;5085052;28;20048;-72
2024/01/10 13:49:09;;;;;;;14.90;7.15;;;;;;;;;;5085304;28;20040;-71
2024/01/10 13:51:35;;;;;;;13.80;7.13;;;;;;;;;;5092546;28;20516;-71
2024/01/10 13:54:01;;;;;;;13.80;7.05;;;;;;;;;;5085807;28;20486;-71
2024/01/10 13:56:28;;;;;;;14.07;6.68;;;;;;;;;;5086844;28;20121;-71
2024/01/10 13:58:54;;;;;;;15.82;6.75;;;;;;;;;;5089851;28;20048;-71
2024/01/10 14:01:20;;;;;;;11.73;6.38;;;;;;;;;;5086029;28;20120;-71
2024/01/10 14:03:46;;;;;;;12.52;6.82;;;;;;;;;;5082557;28;20134;-70
2024/01/10 14:06:12;;;;;;;13.88;7.28;;;;;;;;;;5082570;28;20054;-70
2024/01/10 14:08:40;;;;;;;13.40;7.00;;;;;;;;;;5089120;28;20119;-70
2024/01/10 14:11:06;;;;;;;16.42;7.50;;;;;;;;;;5082518;28;20048;-70
2024/01/10 14:13:32;;;;;;;13.05;7.15;;;;;;;;;;5088108;28;20055;-71
2024/01/10 14:15:58;;;;;;;14.52;7.45;;;;;;;;;;5080509;28;20056;-71
2024/01/10 14:18:24;;;;;;;14.10;7.20;;;;;;;;;;5081247;28;20108;-71
2024/01/10 14:20:50;;;;;;;14.45;6.70;;;;;;;;;;5083542;28;20043;-70
2024/01/10 14:23:17;;;;;;;12.85;6.75;;;;;;;;;;5081755;28;20048;-71